Terminal Aerodrome Forecast
Issued by NWS

Home | Current Version | Previous Version | Text Only | Print | Product List | Glossary On
Versions: 1 2 3 4 5 6 7 8 9 10 11 12 13
681
FTUS43 KIND 180520
TAFLAF
TAF
KLAF 180520Z 1806/1906 22006KT P6SM OVC012
     FM180700 22006KT 6SM -DZ BR OVC008
     FM180900 22006KT 3SM -DZ BR OVC003
     FM181300 23007KT 5SM BR OVC008
     FM181600 23008KT P6SM OVC015
     FM182000 24009KT P6SM BKN035
      AMD LTD TO CLD VIS AND WIND TIL 181400=

USA.gov is the U.S. government's official web portal to all federal, state and local government web resources and services.